Time;durP1;ratioP1;P1;durP2;ratioP2;P2;SDS_P1;SDS_P2;PMS_P1;PMS_P2;Temp;Humidity;BMP_temperature;BMP_pressure;BME280_temperature;BME280_humidity;BME280_pressure;Samples;Min_cycle;Max_cycle;Signal;HPM_P1;HPM_P2
2022/04/12 00:00:06;;;;;;;10.57;2.58;;;;;;;10.09;54.98;101127.19;4996525;28;99756;-34
2022/04/12 00:02:31;;;;;;;3.92;2.55;;;;;;;10.12;54.90;101129.72;4997025;28;97276;-34
2022/04/12 00:04:57;;;;;;;5.72;2.60;;;;;;;10.12;54.78;101136.97;4997389;28;96569;-34
2022/04/12 00:07:22;;;;;;;5.43;2.33;;;;;;;10.11;54.84;101133.41;4995869;28;118352;-34
2022/04/12 00:09:47;;;;;;;3.45;2.10;;;;;;;10.04;54.98;101134.69;4996469;28;98786;-34
2022/04/12 00:12:15;;;;;;;6.97;2.28;;;;;;;10.03;54.42;101138.34;4997170;28;97741;-34
2022/04/12 00:14:41;;;;;;;3.70;2.00;;;;;;;10.08;54.65;101141.69;4997182;28;96674;-34
2022/04/12 00:19:52;;;;;;;5.45;2.63;;;;;;;10.08;55.07;101140.78;4996855;28;97147;-34
2022/04/12 00:22:17;;;;;;;7.10;2.85;;;;;;;10.08;54.67;101139.00;4996705;28;97789;-34
2022/04/12 00:24:42;;;;;;;6.15;2.78;;;;;;;10.02;54.44;101125.78;4995713;28;111249;-34
2022/04/12 00:27:08;;;;;;;5.03;2.50;;;;;;;10.03;54.87;101143.75;4996430;28;113308;-34
2022/04/12 00:29:33;;;;;;;5.38;2.80;;;;;;;10.03;54.73;101148.28;4995322;28;128450;-34
2022/04/12 00:31:59;;;;;;;6.43;2.40;;;;;;;10.01;54.36;101143.00;4996645;28;98101;-34
2022/04/12 00:34:25;;;;;;;7.07;2.30;;;;;;;9.99;54.79;101144.91;4996831;28;96569;-34
2022/04/12 00:36:50;;;;;;;6.55;2.65;;;;;;;10.00;54.85;101146.63;4996926;28;96820;-34
2022/04/12 00:39:15;;;;;;;5.22;2.17;;;;;;;9.87;54.60;101130.19;4995367;28;127175;-34
2022/04/12 00:41:42;;;;;;;7.78;3.33;;;;;;;9.95;55.17;101144.19;4996643;28;99210;-34
2022/04/12 00:44:08;;;;;;;4.53;2.60;;;;;;;9.94;54.98;101147.84;4996616;28;96718;-34
2022/04/12 00:46:33;;;;;;;3.80;2.10;;;;;;;9.90;55.22;101142.69;4997114;28;96667;-34
2022/04/12 00:48:58;;;;;;;4.57;2.20;;;;;;;9.85;55.33;101133.94;4995041;28;126488;-34
2022/04/12 00:51:24;;;;;;;3.65;2.08;;;;;;;9.84;54.95;101130.34;4996092;28;99232;-34
2022/04/12 00:53:49;;;;;;;4.85;2.38;;;;;;;9.84;54.97;101138.47;4995753;28;116236;-34
2022/04/12 00:56:15;;;;;;;5.15;2.35;;;;;;;9.78;55.14;101120.75;4996246;28;96757;-34
2022/04/12 00:58:45;;;;;;;3.90;2.20;;;;;;;9.76;55.71;101122.66;4996023;28;99240;-34
2022/04/12 01:01:10;;;;;;;3.70;2.28;;;;;;;9.78;55.46;101118.03;4994642;28;100812;-34
2022/04/12 01:03:36;;;;;;;3.83;2.08;;;;;;;9.78;55.32;101123.44;4996499;28;96505;-34
2022/04/12 01:06:01;;;;;;;6.18;2.90;;;;;;;9.73;55.29;101120.13;4995206;28;96734;-35
2022/04/12 01:08:27;;;;;;;5.03;2.15;;;;;;;9.75;55.04;101120.03;4995644;28;102130;-34
2022/04/12 01:10:53;;;;;;;4.38;2.10;;;;;;;9.67;55.22;101104.22;4995925;28;99340;-34
2022/04/12 01:13:19;;;;;;;2.25;1.35;;;;;;;9.69;56.02;101110.41;4994340;28;96687;-34
2022/04/12 01:15:44;;;;;;;6.03;2.60;;;;;;;9.71;55.73;101115.75;4996664;28;96718;-34
2022/04/12 01:18:10;;;;;;;4.50;1.30;;;;;;;9.62;56.04;101109.00;4995515;28;99207;-34
2022/04/12 01:20:36;;;;;;;6.40;2.97;;;;;;;9.61;55.59;101112.66;4994482;28;100578;-34
2022/04/12 01:23:15;;;;;;;4.82;2.17;;;;;;;9.68;55.66;101129.44;4996254;28;96681;-34
2022/04/12 01:25:41;;;;;;;3.63;2.33;;;;;;;9.59;55.59;101111.00;4994797;28;96748;-34
2022/04/12 01:28:08;;;;;;;5.03;2.40;;;;;;;9.55;55.43;101107.56;4995930;28;97233;-34
2022/04/12 01:30:34;;;;;;;4.80;2.60;;;;;;;9.57;55.48;101120.06;4993887;28;100781;-34
2022/04/12 01:32:59;;;;;;;3.63;2.15;;;;;;;9.56;55.67;101114.75;4996146;28;96602;-34
2022/04/12 01:35:25;;;;;;;4.97;2.13;;;;;;;9.54;55.38;101114.81;4995959;28;96708;-34
2022/04/12 01:37:50;;;;;;;4.13;2.20;;;;;;;9.55;55.56;101118.38;4995026;28;97786;-34
2022/04/12 01:40:15;;;;;;;3.13;1.80;;;;;;;9.53;55.54;101113.09;4995595;28;97786;-34
2022/04/12 01:42:41;;;;;;;4.60;2.53;;;;;;;9.53;55.65;101106.78;4995681;28;96549;-34
2022/04/12 01:45:07;;;;;;;3.53;1.83;;;;;;;9.47;55.68;101102.56;4995984;28;96545;-34
2022/04/12 01:47:33;;;;;;;6.07;2.45;;;;;;;9.50;56.22;101107.81;4994028;28;102599;-34
2022/04/12 01:49:58;;;;;;;6.72;2.38;;;;;;;9.44;55.43;101101.84;4993876;28;100895;-34
2022/04/12 01:52:24;;;;;;;3.67;2.22;;;;;;;9.40;56.16;101105.69;4995890;28;96548;-34
2022/04/12 01:54:49;;;;;;;4.80;2.10;;;;;;;9.42;56.00;101110.06;4995834;28;97120;-34
2022/04/12 01:57:15;;;;;;;4.93;2.88;;;;;;;9.38;56.00;101096.78;4994923;28;97721;-34
2022/04/12 01:59:42;;;;;;;4.70;2.22;;;;;;;9.33;55.94;101095.19;4995135;28;99236;-34
2022/04/12 02:02:08;;;;;;;4.07;2.08;;;;;;;9.35;56.21;101103.22;4993654;28;96513;-34
2022/04/12 02:04:33;;;;;;;2.50;1.83;;;;;;;9.28;56.05;101097.25;4995255;28;96623;-34
2022/04/12 02:06:59;;;;;;;5.50;2.67;;;;;;;9.30;56.08;101100.75;4994319;28;110265;-34
2022/04/12 02:09:24;;;;;;;4.03;2.15;;;;;;;9.22;56.28;101089.47;4993538;28;126279;-34
2022/04/12 02:11:49;;;;;;;4.60;1.85;;;;;;;9.19;56.30;101086.94;4994664;28;111841;-34
2022/04/12 02:14:15;;;;;;;2.72;1.83;;;;;;;9.21;56.05;101095.84;4995306;28;96750;-34
2022/04/12 02:16:40;;;;;;;9.38;2.70;;;;;;;9.22;56.16;101097.56;4995005;28;97924;-34
2022/04/12 02:19:05;;;;;;;2.65;1.48;;;;;;;9.07;56.32;101074.06;4994356;28;125292;-34
2022/04/12 02:21:30;;;;;;;3.20;1.92;;;;;;;9.08;56.75;101074.00;4995108;28;96451;-34
2022/04/12 02:23:56;;;;;;;3.70;1.95;;;;;;;9.10;56.95;101072.06;4994082;28;110869;-34
2022/04/12 02:26:21;;;;;;;4.18;2.40;;;;;;;9.12;56.33;101075.56;4993484;28;127523;-34
2022/04/12 02:28:46;;;;;;;4.88;1.90;;;;;;;9.05;56.71;101065.16;4993943;28;127245;-34
2022/04/12 02:31:11;;;;;;;4.25;2.15;;;;;;;8.99;56.60;101062.78;4994288;28;116867;-34
2022/04/12 02:33:37;;;;;;;4.68;2.40;;;;;;;9.01;56.67;101067.16;4994522;28;99077;-34
2022/04/12 02:36:02;;;;;;;5.53;2.17;;;;;;;9.01;56.62;101071.66;4994757;28;97990;-34
2022/04/12 02:38:28;;;;;;;3.47;1.88;;;;;;;8.93;57.17;101070.22;4994729;28;97286;-35
2022/04/12 02:40:53;;;;;;;3.67;2.08;;;;;;;8.93;56.97;101056.72;4993507;28;96701;-34
2022/04/12 02:43:18;;;;;;;3.38;1.63;;;;;;;8.90;57.21;101043.38;4995183;28;96845;-34
2022/04/12 02:45:50;;;;;;;3.53;2.08;;;;;;;8.90;56.99;101056.88;4994408;28;99846;-34
2022/04/12 02:48:16;;;;;;;;;;;;;;;8.90;57.34;101054.19;4994797;28;99224;-34
2022/04/12 02:50:41;;;;;;;2.25;1.30;;;;;;;8.85;57.06;101048.16;4994739;28;96686;-34
2022/04/12 02:53:06;;;;;;;4.35;2.28;;;;;;;8.84;56.75;101041.00;4994313;28;96818;-35
2022/04/12 02:55:32;;;;;;;8.20;1.80;;;;;;;8.81;58.02;101033.03;4994520;28;97946;-34
2022/04/12 02:57:57;;;;;;;3.72;1.95;;;;;;;8.72;57.82;101022.69;4994280;28;97768;-34
2022/04/12 03:00:22;;;;;;;7.93;1.73;;;;;;;8.67;57.50;101022.94;4994479;28;96553;-34
2022/04/12 03:02:48;;;;;;;2.55;1.45;;;;;;;8.68;57.78;101019.31;4994507;28;96842;-34
2022/04/12 03:05:13;;;;;;;6.43;2.20;;;;;;;8.71;57.25;101023.66;4994463;28;97352;-34
2022/04/12 03:07:38;;;;;;;2.72;1.52;;;;;;;8.67;58.28;101025.63;4994144;28;99653;-35
2022/04/12 03:10:04;;;;;;;3.78;2.03;;;;;;;8.68;57.69;101035.50;4992437;28;100513;-34
2022/04/12 03:12:30;;;;;;;2.85;1.92;;;;;;;8.69;57.25;101025.56;4994444;28;96525;-34
2022/04/12 03:14:55;;;;;;;2.85;1.77;;;;;;;8.63;57.73;101024.06;4993187;28;113667;-34
2022/04/12 03:17:20;;;;;;;2.75;1.55;;;;;;;8.69;57.31;101039.06;4993888;28;99634;-34
2022/04/12 03:19:46;;;;;;;3.42;1.98;;;;;;;8.64;57.60;101043.84;4994325;28;96965;-34
2022/04/12 03:22:12;;;;;;;2.25;1.38;;;;;;;8.66;57.48;101061.69;4994499;28;96780;-34
2022/04/12 03:24:37;;;;;;;5.85;2.53;;;;;;;8.65;57.90;101053.66;4993986;28;97843;-34
2022/04/12 03:27:02;;;;;;;4.93;2.28;;;;;;;8.53;58.16;101028.16;4993974;28;103107;-34
2022/04/12 03:29:28;;;;;;;3.58;2.20;;;;;;;8.57;57.83;101035.16;4994468;28;97188;-34
2022/04/12 03:31:53;;;;;;;2.00;1.42;;;;;;;8.58;57.74;101025.22;4994925;28;96775;-34
2022/04/12 03:34:19;;;;;;;4.80;2.60;;;;;;;8.59;58.19;101030.56;4994461;28;97349;-34
2022/04/12 03:36:45;;;;;;;2.78;1.67;;;;;;;8.57;58.04;101021.66;4992455;28;100987;-34
2022/04/12 03:39:16;;;;;;;4.55;2.25;;;;;;;8.50;57.65;101012.13;4993955;28;96906;-34
2022/04/12 03:41:41;;;;;;;4.63;2.40;;;;;;;8.61;58.14;101019.69;4992837;28;96662;-34
2022/04/12 03:44:07;;;;;;;2.45;1.45;;;;;;;8.57;57.58;101015.41;4992802;28;127614;-34
2022/04/12 03:46:32;;;;;;;2.45;1.80;;;;;;;8.55;57.49;101028.97;4993954;28;97291;-34
2022/04/12 03:48:57;;;;;;;4.53;1.98;;;;;;;8.60;57.61;101050.34;4993454;28;117031;-34
2022/04/12 03:51:22;;;;;;;3.80;2.28;;;;;;;8.62;57.89;101053.84;4993616;28;109528;-35
2022/04/12 03:53:49;;;;;;;2.53;1.67;;;;;;;8.54;57.79;101061.44;4995279;28;125960;-34
2022/04/12 03:56:15;;;;;;;3.70;2.15;;;;;;;8.53;57.71;101067.78;4997289;28;97885;-34
2022/04/12 03:58:41;;;;;;;3.00;1.65;;;;;;;8.53;58.14;101071.34;4996165;28;96513;-34
2022/04/12 04:01:06;;;;;;;7.28;1.95;;;;;;;8.54;57.77;101078.53;4996866;28;99793;-34
2022/04/12 04:03:32;;;;;;;3.92;2.17;;;;;;;8.53;58.32;101067.78;4996425;28;99416;-34
2022/04/12 04:05:58;;;;;;;2.40;1.38;;;;;;;8.51;58.21;101067.88;4995478;28;100681;-34
2022/04/12 04:08:23;;;;;;;2.88;1.75;;;;;;;8.47;58.30;101066.28;4996730;28;96806;-34
2022/04/12 04:10:49;;;;;;;4.88;1.73;;;;;;;8.41;57.82;101066.56;4997237;28;96609;-34
2022/04/12 04:13:15;;;;;;;2.88;1.63;;;;;;;8.38;58.63;101042.41;4996958;28;97527;-34
2022/04/12 04:15:41;;;;;;;4.63;1.70;;;;;;;8.42;58.43;101052.13;4996661;28;99071;-34
2022/04/12 04:18:09;;;;;;;2.63;1.70;;;;;;;8.36;58.48;101028.97;4995670;28;96647;-34
2022/04/12 04:20:35;;;;;;;2.55;1.60;;;;;;;8.35;58.80;101019.13;4996070;28;96790;-34
2022/04/12 04:23:01;;;;;;;3.13;1.88;;;;;;;8.35;58.69;101015.56;4995172;28;100734;-34
2022/04/12 04:25:26;;;;;;;2.78;1.60;;;;;;;8.27;59.24;101013.22;4996488;28;99346;-34
2022/04/12 04:27:52;;;;;;;3.03;1.52;;;;;;;8.23;59.21;101017.03;4995063;28;96577;-34
2022/04/12 04:30:19;;;;;;;3.05;1.50;;;;;;;8.23;58.80;101022.44;4996901;28;96815;-34
2022/04/12 04:32:44;;;;;;;2.28;1.40;;;;;;;8.25;59.53;101031.34;4996722;28;98035;-34
2022/04/12 04:35:10;;;;;;;2.78;1.92;;;;;;;8.24;58.90;101033.16;4996339;28;98867;-34
2022/04/12 04:37:46;;;;;;;3.30;1.85;;;;;;;8.19;58.95;101016.31;4996670;28;96578;-34
2022/04/12 04:40:16;;;;;;;4.68;1.95;;;;;;;8.24;58.79;101016.09;4995548;28;96771;-34
2022/04/12 04:42:42;;;;;;;2.47;1.42;;;;;;;8.18;58.99;101009.19;4978477;28;100853;-34
2022/04/12 04:45:09;;;;;;;3.05;1.70;;;;;;;8.23;58.52;101017.03;4995323;28;101013;-34
2022/04/12 04:47:34;;;;;;;3.70;2.20;;;;;;;8.24;58.83;101018.78;4995330;28;96562;-34
2022/04/12 04:50:01;;;;;;;3.15;1.90;;;;;;;8.21;58.42;101018.94;4996495;28;96851;-34
2022/04/12 04:52:26;;;;;;;4.90;2.30;;;;;;;8.24;58.67;101022.34;4995930;28;98161;-34
2022/04/12 04:54:51;;;;;;;8.30;1.83;;;;;;;8.15;59.30;101001.25;4996354;28;97496;-34
2022/04/12 04:57:16;;;;;;;3.53;2.03;;;;;;;8.19;59.34;101019.00;4996185;28;96763;-34
2022/04/12 04:59:42;;;;;;;2.40;1.92;;;;;;;8.14;58.91;101014.78;4996135;28;99721;-34
2022/04/12 05:02:07;;;;;;;2.47;1.27;;;;;;;8.16;58.69;101024.56;4996045;28;101765;-34
2022/04/12 05:04:32;;;;;;;6.88;1.38;;;;;;;8.08;59.56;101016.84;4994430;28;115050;-34
2022/04/12 05:06:57;;;;;;;2.78;1.67;;;;;;;8.13;59.45;101015.72;4995242;28;116734;-34
2022/04/12 05:09:23;;;;;;;2.95;1.73;;;;;;;8.09;59.29;101023.97;4995144;28;117668;-34
2022/04/12 05:11:48;;;;;;;4.20;2.10;;;;;;;8.12;59.33;101016.69;4994962;28;125452;-34
2022/04/12 05:14:13;;;;;;;3.53;1.70;;;;;;;8.05;59.23;101005.31;4995726;28;97725;-33
2022/04/12 05:16:39;;;;;;;2.97;1.85;;;;;;;8.02;59.67;101006.34;4994339;28;118877;-33
2022/04/12 05:19:04;;;;;;;2.03;1.48;;;;;;;8.02;60.07;101022.53;4996115;28;96697;-34
2022/04/12 05:21:29;;;;;;;6.53;2.28;;;;;;;7.98;59.63;101017.34;4995610;28;99491;-34
2022/04/12 05:23:55;;;;;;;6.88;2.25;;;;;;;8.07;59.26;101033.09;4995898;28;96912;-34
2022/04/12 05:26:20;;;;;;;4.63;1.95;;;;;;;8.02;59.26;101036.00;4996049;28;96513;-34
2022/04/12 05:28:45;;;;;;;2.95;1.67;;;;;;;7.98;60.10;101036.22;4995187;28;114049;-34
2022/04/12 05:31:11;;;;;;;3.00;1.55;;;;;;;7.98;60.16;101039.78;4993790;28;127126;-34
2022/04/12 05:33:36;;;;;;;8.65;2.08;;;;;;;8.09;59.60;101047.41;4994168;28;126455;-35
2022/04/12 05:36:01;;;;;;;3.38;1.83;;;;;;;8.13;59.45;101050.81;4994142;28;96707;-34
2022/04/12 05:38:26;;;;;;;6.38;2.10;;;;;;;8.08;60.12;101043.81;4995149;28;108464;-34
2022/04/12 05:40:52;;;;;;;3.08;1.90;;;;;;;8.15;59.83;101046.22;4995199;28;98065;-34
2022/04/12 05:43:17;;;;;;;4.10;2.05;;;;;;;8.14;60.67;101047.19;4993762;28;109348;-34
2022/04/12 05:45:42;;;;;;;3.70;2.15;;;;;;;8.15;59.69;101040.81;4995978;28;96529;-34
2022/04/12 05:48:08;;;;;;;3.65;1.95;;;;;;;8.18;59.34;101038.00;4994878;28;116674;-34
2022/04/12 05:50:33;;;;;;;4.15;2.10;;;;;;;8.21;59.57;101040.53;4995424;28;101914;-34
2022/04/12 05:52:58;;;;;;;2.50;1.60;;;;;;;8.20;59.60;101031.56;4994645;28;117940;-34
2022/04/12 05:55:26;;;;;;;2.78;1.65;;;;;;;8.27;60.36;101045.59;4995629;28;96459;-34
2022/04/12 05:57:52;;;;;;;3.28;1.65;;;;;;;8.29;60.36;101044.63;4995556;28;96963;-34
2022/04/12 06:00:23;;;;;;;3.88;2.08;;;;;;;8.29;60.66;101038.31;4993883;28;100036;-34
2022/04/12 06:02:50;;;;;;;3.33;1.80;;;;;;;8.34;59.38;101033.56;4993449;28;101349;-34
2022/04/12 06:05:16;;;;;;;4.85;1.83;;;;;;;8.41;59.46;101029.63;4993665;28;96615;-34
2022/04/12 06:07:54;;;;;;;3.25;1.92;;;;;;;8.50;59.73;101026.50;4993778;28;96790;-34
2022/04/12 06:10:20;;;;;;;2.30;1.23;;;;;;;8.52;60.55;101021.03;4993535;28;101138;-34
2022/04/12 06:12:47;;;;;;;3.17;1.95;;;;;;;8.66;59.93;101033.84;4993566;28;101431;-34
2022/04/12 06:15:13;;;;;;;2.92;1.55;;;;;;;8.71;59.73;101038.03;4993799;28;96498;-34
2022/04/12 06:17:38;;;;;;;2.45;1.50;;;;;;;8.74;59.92;101023.50;4995148;28;96765;-34
2022/04/12 06:20:07;;;;;;;2.97;1.40;;;;;;;8.80;59.47;101017.81;4993502;28;101637;-34
2022/04/12 06:22:33;;;;;;;2.97;1.58;;;;;;;8.85;58.97;101015.72;4993766;28;102141;-34
2022/04/12 06:24:59;;;;;;;2.67;1.65;;;;;;;8.93;59.48;101027.00;4993786;28;96551;-34
2022/04/12 06:27:32;;;;;;;2.47;1.23;;;;;;;9.04;58.94;101023.75;4995186;28;96740;-34
2022/04/12 06:29:58;;;;;;;1.98;1.25;;;;;;;9.16;58.88;101026.78;4992662;28;100807;-34
2022/04/12 06:32:27;;;;;;;3.45;1.83;;;;;;;9.31;58.98;101043.03;4994524;28;99343;-34
2022/04/12 06:34:52;;;;;;;3.20;1.73;;;;;;;9.47;58.17;101053.03;4995072;28;96697;-34
2022/04/12 06:37:17;;;;;;;4.28;2.08;;;;;;;9.54;58.40;101038.22;4994749;28;96824;-34
2022/04/12 06:39:42;;;;;;;2.83;1.38;;;;;;;9.65;58.11;101048.44;4994502;28;99609;-34
2022/04/12 06:42:08;;;;;;;2.67;1.27;;;;;;;9.67;58.04;101033.88;4993963;28;126935;-34
2022/04/12 06:44:33;;;;;;;3.70;1.48;;;;;;;9.79;57.55;101022.38;4993546;28;96741;-34
2022/04/12 06:46:58;;;;;;;4.32;1.80;;;;;;;9.97;57.93;101031.31;4994345;28;116608;-34
2022/04/12 06:49:24;;;;;;;4.05;2.22;;;;;;;10.09;57.10;101024.34;4993983;28;123817;-34
2022/04/12 06:51:49;;;;;;;3.92;1.88;;;;;;;10.30;57.17;101027.69;4994647;28;97782;-34
2022/04/12 06:54:14;;;;;;;2.97;1.88;;;;;;;10.35;56.95;101019.31;4994273;28;96725;-34
2022/04/12 06:56:39;;;;;;;3.80;1.40;;;;;;;10.50;56.28;101018.41;4994558;28;96733;-34
2022/04/12 06:59:05;;;;;;;2.95;1.73;;;;;;;10.63;56.42;101016.72;4993259;28;126608;-34
2022/04/12 07:01:30;;;;;;;4.97;2.22;;;;;;;10.77;56.26;101020.44;4994471;28;97358;-34
2022/04/12 07:03:55;;;;;;;8.60;2.70;;;;;;;10.87;55.74;101005.38;4994492;28;96526;-34
2022/04/12 07:06:21;;;;;;;3.90;2.17;;;;;;;10.97;55.69;101009.28;4993872;28;114105;-34
2022/04/12 07:08:46;;;;;;;4.57;2.60;;;;;;;11.18;55.60;101030.63;4993886;28;97415;-34
2022/04/12 07:11:11;;;;;;;3.10;1.85;;;;;;;11.28;55.43;101026.38;4992162;28;120283;-34
2022/04/12 07:13:37;;;;;;;7.55;2.45;;;;;;;11.35;55.30;101021.47;4991635;28;117151;-34
2022/04/12 07:16:02;;;;;;;4.50;1.95;;;;;;;11.50;54.99;101014.19;4983543;28;116940;-34
2022/04/12 07:18:28;;;;;;;5.00;2.40;;;;;;;11.66;54.75;101023.97;4993446;28;99312;-34
2022/04/12 07:20:54;;;;;;;8.80;2.20;;;;;;;11.87;54.42;101027.22;4994518;28;97318;-34
2022/04/12 07:23:20;;;;;;;5.65;2.22;;;;;;;11.86;53.93;101006.41;4992933;28;97784;-34
2022/04/12 07:25:45;;;;;;;10.98;2.15;;;;;;;12.06;54.38;101026.91;4993462;28;116865;-34
2022/04/12 07:28:10;;;;;;;4.80;2.00;;;;;;;12.00;54.16;101016.41;4995973;28;98065;-35
2022/04/12 07:30:35;;;;;;;3.95;2.15;;;;;;;12.01;54.19;101020.91;4996944;28;112405;-34
2022/04/12 07:33:01;;;;;;;2.65;1.88;;;;;;;12.04;54.28;101011.69;4997715;28;96489;-34
2022/04/12 07:35:27;;;;;;;5.82;2.33;;;;;;;12.21;53.83;101029.59;4997288;28;116101;-34
2022/04/12 07:37:53;;;;;;;4.13;2.28;;;;;;;12.35;54.12;101034.97;4996030;28;101430;-34
2022/04/12 07:40:18;;;;;;;3.92;2.47;;;;;;;12.48;53.84;101032.31;4997284;28;99110;-34
2022/04/12 07:42:43;;;;;;;3.80;2.13;;;;;;;12.49;53.28;101009.63;4996039;28;117773;-34
2022/04/12 07:45:09;;;;;;;3.78;2.00;;;;;;;12.60;53.26;101017.03;4996820;28;117744;-34
2022/04/12 07:47:35;;;;;;;3.63;2.22;;;;;;;12.83;53.34;101023.63;4997056;28;99366;-34
2022/04/12 07:50:01;;;;;;;3.15;1.77;;;;;;;12.82;52.94;101021.88;4995767;28;100771;-34
2022/04/12 07:52:26;;;;;;;9.15;2.38;;;;;;;12.84;52.96;101006.34;4997465;28;96499;-34
2022/04/12 07:54:52;;;;;;;3.30;1.77;;;;;;;12.93;53.02;101006.56;4997599;28;96734;-34
2022/04/12 07:57:17;;;;;;;3.58;2.00;;;;;;;13.04;52.56;101002.22;4995812;28;126386;-35
2022/04/12 07:59:42;;;;;;;5.22;2.42;;;;;;;13.16;52.11;101015.84;4997441;28;104581;-34
2022/04/12 08:02:07;;;;;;;3.65;2.25;;;;;;;13.18;52.26;101007.59;4996447;28;116919;-34
2022/04/12 08:04:33;;;;;;;4.25;2.30;;;;;;;13.25;52.19;101019.78;4997135;28;96859;-34
2022/04/12 08:06:58;;;;;;;6.00;2.50;;;;;;;13.31;52.64;101030.25;4995962;28;110184;-34
2022/04/12 08:09:24;;;;;;;4.43;2.35;;;;;;;13.51;52.39;101026.13;4995177;28;100713;-34
2022/04/12 08:11:49;;;;;;;7.60;2.35;;;;;;;13.68;52.20;101021.31;4996060;28;115853;-35
2022/04/12 08:14:14;;;;;;;6.57;2.70;;;;;;;13.92;51.42;101027.75;4981911;28;96839;-34
2022/04/12 08:16:40;;;;;;;6.47;3.05;;;;;;;14.11;51.21;101023.66;4997512;28;97882;-34
2022/04/12 08:19:05;;;;;;;3.55;2.22;;;;;;;14.09;50.85;101034.69;4996655;28;99095;-34
2022/04/12 08:21:35;;;;;;;4.38;2.67;;;;;;;14.31;50.55;101025.78;4996610;28;105616;-34
2022/04/12 08:24:01;;;;;;;4.72;2.75;;;;;;;14.56;50.20;101019.41;4996155;28;96683;-34
2022/04/12 08:26:27;;;;;;;5.70;2.53;;;;;;;14.78;49.06;101023.22;4996516;28;99559;-34
2022/04/12 08:28:52;;;;;;;6.85;2.90;;;;;;;14.75;49.39;101027.03;4996498;28;99313;-34
2022/04/12 08:31:17;;;;;;;5.47;3.28;;;;;;;15.04;49.19;101030.25;4996322;28;96443;-34
2022/04/12 08:33:43;;;;;;;3.40;2.38;;;;;;;15.23;48.44;101018.78;4997051;28;96773;-34
2022/04/12 08:36:08;;;;;;;3.30;2.00;;;;;;;15.38;47.97;101024.88;4995528;28;127901;-34
2022/04/12 08:38:33;;;;;;;4.32;2.40;;;;;;;15.31;47.75;101012.72;4995524;28;117310;-34
2022/04/12 08:41:01;;;;;;;4.18;2.80;;;;;;;15.45;48.32;101007.03;4995804;28;116815;-35
2022/04/12 08:43:29;;;;;;;3.15;1.95;;;;;;;15.73;47.88;101007.59;4995385;28;96846;-34
2022/04/12 08:45:55;;;;;;;4.47;2.25;;;;;;;15.98;47.72;101011.91;4994953;28;100976;-34
2022/04/12 08:48:22;;;;;;;4.40;2.10;;;;;;;16.14;46.68;100993.25;4995338;28;100634;-34
2022/04/12 08:50:49;;;;;;;5.55;2.53;;;;;;;16.40;47.13;100992.06;4995191;28;96670;-34
2022/04/12 08:53:15;;;;;;;8.65;2.55;;;;;;;16.55;47.08;100999.00;4996414;28;96463;-34
2022/04/12 08:55:41;;;;;;;7.50;2.13;;;;;;;16.64;46.92;100995.50;4994173;28;101059;-34
2022/04/12 08:58:07;;;;;;;4.25;1.95;;;;;;;16.63;46.25;100982.78;4995653;28;99564;-34
2022/04/12 09:00:32;;;;;;;4.07;1.83;;;;;;;16.70;46.53;100967.59;4996947;28;96488;-34
2022/04/12 09:02:59;;;;;;;6.18;2.65;;;;;;;16.89;45.91;100969.66;4996739;28;96816;-34
2022/04/12 09:05:25;;;;;;;6.35;2.67;;;;;;;16.96;46.40;100975.47;4995807;28;99995;-34
2022/04/12 09:07:51;;;;;;;4.25;1.83;;;;;;;17.18;45.94;100982.66;4994526;28;100919;-34
2022/04/12 09:10:17;;;;;;;6.70;2.08;;;;;;;17.18;45.23;100979.94;4995813;28;96792;-34
2022/04/12 09:12:42;;;;;;;5.55;2.25;;;;;;;17.42;45.68;100965.94;4996464;28;96873;-34
2022/04/12 09:15:12;;;;;;;3.83;2.20;;;;;;;17.45;44.63;100962.97;4995499;28;106260;-34
2022/04/12 09:17:41;;;;;;;8.38;2.08;;;;;;;17.42;45.41;100952.25;4994268;28;100779;-34
2022/04/12 09:20:19;;;;;;;3.33;1.73;;;;;;;17.50;44.03;100949.72;4994274;28;96611;-34
2022/04/12 09:22:44;;;;;;;3.50;1.90;;;;;;;17.60;44.99;100939.66;4996282;28;96490;-34
2022/04/12 09:25:10;;;;;;;8.15;2.30;;;;;;;17.80;43.85;100945.22;4995486;28;99406;-34
2022/04/12 09:27:37;;;;;;;4.35;2.28;;;;;;;17.93;44.51;100943.13;4994227;28;101075;-34
2022/04/12 09:30:13;;;;;;;5.90;2.40;;;;;;;18.08;44.49;100938.13;4996116;28;96548;-34
2022/04/12 09:32:41;;;;;;;3.58;1.50;;;;;;;18.18;42.56;100941.72;4994708;28;96734;-34
2022/04/12 09:35:08;;;;;;;3.30;1.55;;;;;;;18.22;42.71;100951.41;4994263;28;100931;-34
2022/04/12 09:37:35;;;;;;;2.92;1.77;;;;;;;18.36;43.71;100952.03;4994481;28;101027;-34
2022/04/12 09:40:01;;;;;;;4.05;2.25;;;;;;;18.48;44.27;100961.00;4994570;28;96788;-34
2022/04/12 09:42:44;;;;;;;3.37;1.77;;;;;;;18.62;43.41;100958.69;4995563;28;100202;-34
2022/04/12 09:45:13;;;;;;;3.45;2.15;;;;;;;18.61;43.14;100953.34;4994756;28;100048;-34
2022/04/12 09:47:39;;;;;;;4.22;1.83;;;;;;;18.62;42.01;100947.72;4993894;28;101090;-35
2022/04/12 09:50:05;;;;;;;4.28;1.67;;;;;;;18.64;42.66;100956.66;4993811;28;96762;-34
2022/04/12 09:52:31;;;;;;;3.92;1.70;;;;;;;18.68;41.35;100952.59;4995606;28;96976;-34
2022/04/12 09:54:57;;;;;;;5.28;1.92;;;;;;;18.89;42.84;100937.91;4995327;28;97883;-34
2022/04/12 09:57:23;;;;;;;5.15;1.90;;;;;;;19.06;41.90;100933.53;4993911;28;100828;-34
2022/04/12 09:59:53;;;;;;;4.35;2.10;;;;;;;19.31;41.96;100938.41;4994186;28;96601;-34
2022/04/12 10:02:18;;;;;;;4.45;2.17;;;;;;;19.36;42.60;100924.22;4995822;28;96890;-35
2022/04/12 10:04:44;;;;;;;4.95;2.42;;;;;;;19.43;41.52;100930.84;4994972;28;99650;-34
2022/04/12 10:07:11;;;;;;;9.05;2.70;;;;;;;19.45;41.66;100905.94;4993588;28;101054;-34
2022/04/12 10:09:37;;;;;;;5.05;2.35;;;;;;;19.22;43.25;100917.31;4992952;28;96845;-34
2022/04/12 10:12:05;;;;;;;5.38;2.65;;;;;;;19.10;43.02;100904.78;4995346;28;96855;-34
2022/04/12 10:14:31;;;;;;;4.60;2.40;;;;;;;18.81;43.70;100905.69;4993545;28;100854;-34
2022/04/12 10:16:58;;;;;;;3.15;2.00;;;;;;;18.50;44.33;100898.63;4993294;28;100746;-34
2022/04/12 10:19:24;;;;;;;4.10;2.22;;;;;;;18.21;44.95;100900.34;4993768;28;96599;-34
2022/04/12 10:21:49;;;;;;;6.13;2.92;;;;;;;18.06;44.24;100901.75;4995427;28;96798;-34
2022/04/12 10:24:17;;;;;;;7.43;2.70;;;;;;;17.99;45.07;100915.16;4994955;28;97950;-34
2022/04/12 10:26:46;;;;;;;5.18;2.97;;;;;;;17.95;45.26;100902.75;4977217;28;100841;-34
2022/04/12 10:29:13;;;;;;;4.22;2.60;;;;;;;17.77;45.22;100916.22;4995207;28;96793;-34
2022/04/12 10:31:53;;;;;;;6.00;2.63;;;;;;;17.73;45.75;100913.91;4993576;28;96975;-35
2022/04/12 10:34:19;;;;;;;4.85;2.55;;;;;;;17.70;45.83;100928.75;4992810;28;100784;-34
2022/04/12 10:37:06;;;;;;;5.47;2.25;;;;;;;17.66;46.12;100927.28;4994876;28;97015;-34
2022/04/12 10:39:34;;;;;;;4.75;2.33;;;;;;;17.64;45.86;100904.66;4994867;28;96533;-34
2022/04/12 10:42:03;;;;;;;4.00;2.50;;;;;;;17.88;46.51;100911.69;4994511;28;96882;-34
2022/04/12 10:44:35;;;;;;;3.78;1.92;;;;;;;17.97;45.97;100902.59;4993218;28;98412;-34
2022/04/12 10:47:01;;;;;;;4.38;2.38;;;;;;;17.97;45.54;100883.41;4976516;28;99829;-34
2022/04/12 10:49:35;;;;;;;4.22;2.22;;;;;;;17.97;45.34;100872.44;4993401;28;96709;-34
2022/04/12 10:52:00;;;;;;;4.25;2.10;;;;;;;18.00;46.28;100883.16;4977302;28;96832;-34
2022/04/12 10:54:34;;;;;;;5.57;2.47;;;;;;;17.94;45.86;100875.47;4993906;28;99394;-35
2022/04/12 10:57:18;;;;;;;3.35;2.03;;;;;;;18.03;46.36;100894.69;4994122;28;99159;-34
2022/04/12 10:59:50;;;;;;;3.42;2.35;;;;;;;17.94;45.75;100897.41;4993928;28;96752;-35
2022/04/12 11:02:16;;;;;;;5.50;2.55;;;;;;;17.96;46.25;100900.88;4993857;28;96817;-34
2022/04/12 11:04:42;;;;;;;3.95;1.75;;;;;;;18.02;46.20;100900.31;4996509;28;100970;-34
2022/04/12 11:07:07;;;;;;;3.78;2.10;;;;;;;18.06;45.70;100890.78;4997486;28;99186;-34
2022/04/12 11:09:33;;;;;;;7.20;2.40;;;;;;;18.27;44.71;100892.56;4995388;28;110407;-34
2022/04/12 11:12:01;;;;;;;4.30;2.00;;;;;;;18.41;45.28;100878.41;4998262;28;96766;-34
2022/04/12 11:14:29;;;;;;;4.72;1.90;;;;;;;18.47;45.47;100872.31;4996309;28;101224;-34
2022/04/12 11:16:58;;;;;;;6.22;2.42;;;;;;;18.56;45.54;100876.09;4996575;28;100893;-34
2022/04/12 11:19:24;;;;;;;3.80;2.20;;;;;;;18.55;45.47;100874.38;4996556;28;96665;-35
2022/04/12 11:21:51;;;;;;;6.38;2.30;;;;;;;18.71;44.93;100869.16;4996631;28;96848;-34
2022/04/12 11:24:17;;;;;;;4.15;2.15;;;;;;;18.80;45.04;100870.16;4997211;28;97550;-34